Time;durP1;ratioP1;P1;durP2;ratioP2;P2;SDS_P1;SDS_P2;PMS_P1;PMS_P2;Temp;Humidity;BMP_temperature;BMP_pressure;BME280_temperature;BME280_humidity;BME280_pressure;Samples;Min_cycle;Max_cycle;Signal;HPM_P1;HPM_P2
2021/04/19 00:01:53;;;;;;;16.10;14.40;;;;;;;6.84;89.50;153116.22;5051942;28;20448;-83
2021/04/19 00:04:28;;;;;;;15.40;13.73;;;;;;;6.82;89.76;153111.06;5051452;28;20478;-83
2021/04/19 00:07:04;;;;;;;17.13;13.20;;;;;;;6.79;88.77;153104.63;5051541;28;20815;-83
2021/04/19 00:09:39;;;;;;;16.13;14.43;;;;;;;6.75;88.30;153095.56;5038878;28;20455;-75
2021/04/19 00:12:14;;;;;;;14.47;12.83;;;;;;;6.72;88.83;153086.56;5039546;28;20450;-76
2021/04/19 00:14:50;;;;;;;15.20;13.60;;;;;;;6.71;89.50;153085.28;5034200;28;20478;-76
2021/04/19 00:17:25;;;;;;;17.50;14.43;;;;;;;6.69;88.71;153080.13;5035554;28;20443;-76
2021/04/19 00:20:00;;;;;;;15.40;13.73;;;;;;;6.66;88.77;153072.38;5052318;28;20434;-76
2021/04/19 00:22:36;;;;;;;15.67;13.47;;;;;;;6.63;89.66;153064.63;5035305;28;20924;-76
2021/04/19 00:25:13;;;;;;;16.50;13.83;;;;;;;6.61;89.59;153058.16;5035037;28;20953;-76
2021/04/19 00:27:48;;;;;;;15.90;13.50;;;;;;;6.58;89.59;153050.41;5043902;28;20450;-76
2021/04/19 00:30:24;;;;;;;16.40;14.50;;;;;;;6.55;89.78;153042.66;5051388;28;20454;-76
2021/04/19 00:33:00;;;;;;;14.77;13.10;;;;;;;6.51;89.95;153033.63;5049971;28;20430;-76
2021/04/19 00:35:35;;;;;;;17.00;15.20;;;;;;;6.49;89.51;153028.47;5030762;28;20456;-76
2021/04/19 00:38:11;;;;;;;15.60;14.00;;;;;;;6.48;91.68;153024.63;5034067;28;20435;-76
2021/04/19 00:40:46;;;;;;;17.53;14.30;;;;;;;6.46;90.78;153019.47;5042198;28;20454;-75
2021/04/19 00:43:25;;;;;;;19.53;15.40;;;;;;;6.44;90.44;153014.28;5053657;28;20438;-76
2021/04/19 00:46:04;;;;;;;21.93;14.60;;;;;;;6.43;90.48;153011.72;5038056;28;20461;-76
2021/04/19 00:48:39;;;;;;;20.90;14.40;;;;;;;6.39;90.40;153002.66;5053226;28;20462;-76
2021/04/19 00:51:15;;;;;;;17.43;13.80;;;;;;;6.36;90.52;152993.63;5054268;28;20449;-76
2021/04/19 00:53:51;;;;;;;16.50;14.53;;;;;;;6.36;90.21;152994.91;5053723;28;21236;-76
2021/04/19 00:56:27;;;;;;;16.33;14.47;;;;;;;6.33;90.30;152985.91;5054039;28;21004;-76
2021/04/19 00:59:03;;;;;;;16.10;14.10;;;;;;;6.30;93.29;152979.41;5053742;28;20445;-75
2021/04/19 01:01:38;;;;;;;17.83;13.97;;;;;;;6.27;92.38;152971.72;5038645;28;20863;-76
2021/04/19 01:04:13;;;;;;;17.43;14.50;;;;;;;6.24;91.29;152962.66;5040800;28;20534;-76
2021/04/19 01:06:49;;;;;;;15.67;13.20;;;;;;;6.16;90.86;152942.03;5054183;28;20457;-75
2021/04/19 01:09:26;;;;;;;17.30;13.87;;;;;;;6.13;91.81;152936.88;5053389;28;20450;-76
2021/04/19 01:12:01;;;;;;;16.10;13.97;;;;;;;6.12;92.30;152932.97;5038548;28;20537;-76
2021/04/19 01:14:36;;;;;;;15.40;13.67;;;;;;;6.11;91.81;152930.44;5054745;28;20543;-76
2021/04/19 01:17:11;;;;;;;19.80;14.93;;;;;;;6.11;92.16;152930.44;5053513;28;20467;-77
2021/04/19 01:19:48;;;;;;;17.63;15.17;;;;;;;6.11;92.86;152931.72;5052138;28;20445;-75
2021/04/19 01:22:26;;;;;;;18.57;14.03;;;;;;;6.11;93.18;152930.44;5052200;28;20456;-77
2021/04/19 01:25:06;;;;;;;16.60;14.80;;;;;;;6.13;92.67;152935.59;5053409;28;20442;-78
2021/04/19 01:27:43;;;;;;;18.57;14.30;;;;;;;6.12;92.61;152932.97;5052940;28;20870;-77
2021/04/19 01:30:21;;;;;;;16.97;15.17;;;;;;;6.13;93.24;152935.59;5054748;28;20474;-77
2021/04/19 01:32:57;;;;;;;19.00;15.70;;;;;;;6.15;94.44;152940.72;5053272;28;20812;-77
2021/04/19 01:35:33;;;;;;;18.57;14.80;;;;;;;6.20;94.32;152952.31;5054733;28;20449;-77
2021/04/19 01:38:12;;;;;;;15.33;13.73;;;;;;;6.20;93.92;152953.63;5052558;28;20444;-77
2021/04/19 01:40:49;;;;;;;23.30;15.70;;;;;;;6.20;93.30;152952.31;5037252;28;20458;-77
2021/04/19 01:43:24;;;;;;;16.33;13.30;;;;;;;6.23;94.01;152960.06;5052624;28;20437;-77
2021/04/19 01:46:06;;;;;;;17.20;14.50;;;;;;;6.23;92.67;152960.06;5052980;28;20441;-77
2021/04/19 01:48:42;;;;;;;20.23;14.00;;;;;;;6.22;93.19;152957.53;5032164;28;20443;-77
2021/04/19 01:51:17;;;;;;;15.87;13.90;;;;;;;6.23;93.37;152960.06;5033028;28;20453;-77
2021/04/19 01:53:53;;;;;;;18.17;14.60;;;;;;;6.23;93.36;152960.06;5038463;28;20984;-77
2021/04/19 01:56:28;;;;;;;16.57;14.87;;;;;;;6.23;94.80;152961.38;5036416;28;20499;-77
2021/04/19 01:59:04;;;;;;;17.03;14.30;;;;;;;6.23;93.29;152961.38;5049589;28;20874;-77
2021/04/19 02:01:44;;;;;;;16.43;13.43;;;;;;;6.25;92.79;152966.53;5051620;28;20492;-76
2021/04/19 02:04:28;;;;;;;20.53;13.13;;;;;;;6.29;92.75;152975.56;5040560;28;20917;-76
2021/04/19 02:07:07;;;;;;;16.37;14.70;;;;;;;6.25;92.61;152965.28;5057143;28;20485;-76
2021/04/19 02:09:55;;;;;;;15.57;13.87;;;;;;;6.26;92.85;152969.13;5037097;28;20578;-76
2021/04/19 02:12:39;;;;;;;16.90;14.37;;;;;;;6.30;92.79;152978.16;5052330;28;20924;-76
2021/04/19 02:15:20;;;;;;;20.13;15.10;;;;;;;6.32;92.43;152983.31;5046600;28;20477;-76
2021/04/19 02:18:07;;;;;;;21.63;14.20;;;;;;;6.32;93.96;152983.31;5018566;28;20786;-77
2021/04/19 02:20:46;;;;;;;17.47;14.57;;;;;;;6.32;92.41;152984.63;5036766;28;20484;-76
2021/04/19 02:23:25;;;;;;;17.23;15.30;;;;;;;6.32;92.86;152983.31;5036643;28;20796;-76
2021/04/19 02:26:05;;;;;;;18.00;13.80;;;;;;;6.33;92.95;152987.16;5053502;28;20470;-76
2021/04/19 02:28:46;;;;;;;16.93;13.93;;;;;;;6.34;92.04;152988.47;5036261;28;20453;-77
2021/04/19 02:31:27;;;;;;;16.00;14.30;;;;;;;6.34;92.54;152988.47;5051901;28;20469;-76
2021/04/19 02:34:09;;;;;;;15.50;13.90;;;;;;;6.37;94.00;152997.53;5052218;28;20453;-77
2021/04/19 02:36:48;;;;;;;15.43;13.83;;;;;;;6.37;92.90;152996.22;5051489;28;20449;-76
2021/04/19 02:39:24;;;;;;;19.07;15.40;;;;;;;6.39;93.28;153001.38;5036400;28;20453;-76
2021/04/19 02:42:01;;;;;;;17.93;13.77;;;;;;;6.37;92.72;152996.22;5036259;28;20848;-76
2021/04/19 02:44:37;;;;;;;19.07;13.90;;;;;;;6.37;93.59;152997.53;5035312;28;20447;-76
2021/04/19 02:47:50;;;;;;;18.47;15.03;;;;;;;6.37;92.67;152997.53;5030385;28;20444;-76
2021/04/19 02:50:36;;;;;;;16.23;13.90;;;;;;;6.39;94.16;153001.38;4998913;28;20443;-76
2021/04/19 02:53:12;;;;;;;19.20;15.87;;;;;;;6.39;94.42;153001.38;5042789;28;20492;-76
2021/04/19 02:55:47;;;;;;;20.80;14.67;;;;;;;6.39;94.17;153001.38;5053686;28;20460;-76
2021/04/19 02:58:27;;;;;;;16.07;14.00;;;;;;;6.40;94.95;153005.28;5019726;28;20437;-77
2021/04/19 03:01:02;;;;;;;15.30;13.60;;;;;;;6.41;93.47;153006.53;5019526;28;20935;-77
2021/04/19 03:03:42;;;;;;;15.73;13.93;;;;;;;6.39;92.58;153001.38;5041478;28;20445;-77
2021/04/19 03:06:19;;;;;;;18.10;15.40;;;;;;;6.36;93.01;152994.91;5052017;28;20510;-76
2021/04/19 03:08:57;;;;;;;17.10;15.30;;;;;;;6.36;93.35;152993.63;5036280;28;20432;-77
2021/04/19 03:11:44;;;;;;;17.33;15.47;;;;;;;6.36;93.67;152993.63;5036098;28;20819;-77
2021/04/19 03:14:25;;;;;;;17.67;14.83;;;;;;;6.38;94.12;152998.81;5041559;28;20465;-76
2021/04/19 03:17:15;;;;;;;19.50;15.10;;;;;;;6.39;94.09;153002.66;5039013;28;20452;-76
2021/04/19 03:20:13;;;;;;;18.20;15.82;;;;;;;6.40;93.90;153003.97;5056113;28;20530;-76
2021/04/19 03:23:12;;;;;;;19.63;15.37;;;;;;;6.40;94.12;153003.97;5045411;28;20441;-76
2021/04/19 03:26:00;;;;;;;17.37;14.60;;;;;;;6.39;94.17;153002.66;5038948;28;20442;-76
2021/04/19 03:28:38;;;;;;;18.27;15.27;;;;;;;6.39;93.25;153001.38;5039035;28;20438;-76
2021/04/19 03:31:23;;;;;;;17.97;14.00;;;;;;;6.39;94.01;153001.38;5054560;28;20205;-77
2021/04/19 03:34:06;;;;;;;18.87;14.67;;;;;;;6.41;94.28;153006.53;5040837;28;20975;-76
2021/04/19 03:36:44;;;;;;;16.80;14.80;;;;;;;6.40;94.11;153005.28;5048429;28;20445;-76
2021/04/19 03:39:22;;;;;;;18.97;15.37;;;;;;;6.43;93.78;153011.72;5041908;28;20445;-76
2021/04/19 03:41:59;;;;;;;18.60;15.90;;;;;;;6.43;92.51;153011.72;5054126;28;20449;-76
2021/04/19 03:44:38;;;;;;;21.10;16.40;;;;;;;6.44;93.08;153014.28;5054088;28;20930;-76
2021/04/19 03:47:17;;;;;;;20.20;17.23;;;;;;;6.42;93.52;153009.13;5056217;28;20531;-76
2021/04/19 03:50:13;;;;;;;18.70;16.70;;;;;;;6.43;93.44;153011.72;5071834;28;20436;-76
2021/04/19 03:52:59;;;;;;;19.13;16.13;;;;;;;6.42;93.69;153009.13;5046027;28;20440;-76
2021/04/19 03:55:35;;;;;;;21.87;17.10;;;;;;;6.42;93.62;153009.13;5019879;28;20441;-76
2021/04/19 03:58:12;;;;;;;20.07;16.70;;;;;;;6.42;95.36;153010.41;5019318;28;20429;-76
2021/04/19 04:00:53;;;;;;;20.60;15.90;;;;;;;6.45;94.75;153016.88;5040245;28;20963;-76
2021/04/19 04:03:51;;;;;;;19.13;16.90;;;;;;;6.46;94.01;153019.47;5038599;28;20437;-76
2021/04/19 04:06:47;;;;;;;24.20;18.80;;;;;;;6.49;94.34;153027.16;5047681;28;20437;-76
2021/04/19 04:09:24;;;;;;;22.77;18.00;;;;;;;6.49;94.19;153027.16;5019087;28;20441;-76
2021/04/19 04:12:01;;;;;;;22.60;17.93;;;;;;;6.47;93.88;153023.31;5044350;28;20457;-77
2021/04/19 04:14:49;;;;;;;25.53;19.50;;;;;;;6.48;93.79;153024.63;5047953;28;20542;-76
2021/04/19 04:17:26;;;;;;;22.97;18.10;;;;;;;6.50;94.29;153029.75;5038012;28;20442;-77
2021/04/19 04:20:14;;;;;;;21.70;17.57;;;;;;;6.47;94.94;153023.31;5036969;28;20454;-76
2021/04/19 04:22:59;;;;;;;23.30;18.73;;;;;;;6.49;94.89;153028.47;5037897;28;20433;-76
2021/04/19 04:25:44;;;;;;;22.90;17.53;;;;;;;6.49;95.21;153028.47;5037798;28;20450;-76
2021/04/19 04:28:22;;;;;;;21.43;17.07;;;;;;;6.49;96.60;153028.47;5041432;28;20442;-77
2021/04/19 04:31:19;;;;;;;23.53;19.10;;;;;;;6.48;96.23;153024.63;5038557;28;20540;-76
2021/04/19 04:33:57;;;;;;;22.13;18.83;;;;;;;6.46;95.87;153020.72;5052977;28;20477;-77
2021/04/19 04:36:33;;;;;;;20.30;17.40;;;;;;;6.45;96.34;153018.16;5078576;28;20550;-76
2021/04/19 04:39:14;;;;;;;22.70;17.93;;;;;;;6.45;96.75;153016.88;5038794;28;20449;-76
2021/04/19 04:41:55;;;;;;;20.93;16.40;;;;;;;6.43;96.34;153011.72;5048544;28;20449;-76
2021/04/19 04:44:34;;;;;;;21.70;17.03;;;;;;;6.42;96.52;153009.13;5046524;28;20948;-76
2021/04/19 04:47:14;;;;;;;20.77;17.93;;;;;;;6.43;95.84;153013.03;5070420;28;20455;-76
2021/04/19 04:49:51;;;;;;;21.00;17.77;;;;;;;6.42;95.96;153010.41;5062484;28;20444;-76
2021/04/19 04:52:29;;;;;;;21.60;16.97;;;;;;;6.42;95.84;153009.13;5046882;28;20835;-75
2021/04/19 04:55:05;;;;;;;22.10;16.97;;;;;;;6.38;94.99;153000.06;5060751;28;20480;-75
2021/04/19 04:57:44;;;;;;;27.33;18.63;;;;;;;6.36;95.80;152993.63;5071626;28;20441;-76
2021/04/19 05:00:21;;;;;;;22.40;17.20;;;;;;;6.35;96.14;152991.06;5034324;28;20449;-75
2021/04/19 05:02:58;;;;;;;20.23;16.17;;;;;;;6.30;96.39;152978.16;5040230;28;20451;-76
2021/04/19 05:05:33;;;;;;;18.20;16.10;;;;;;;6.26;94.73;152967.81;5066666;28;20448;-76
2021/04/19 05:08:11;;;;;;;18.87;16.40;;;;;;;6.23;96.68;152960.06;5038707;28;20432;-75
2021/04/19 05:10:46;;;;;;;21.13;16.53;;;;;;;6.19;94.50;152949.78;5051513;28;20480;-75
2021/04/19 05:13:21;;;;;;;22.57;17.93;;;;;;;6.10;95.11;152929.13;5059131;28;20444;-76
2021/04/19 05:15:56;;;;;;;21.57;17.00;;;;;;;6.12;97.20;152932.97;5057512;28;20541;-76
2021/04/19 05:18:31;;;;;;;18.27;16.17;;;;;;;6.12;97.88;152934.28;5051652;28;20446;-76
2021/04/19 05:21:06;;;;;;;22.53;16.83;;;;;;;6.12;99.56;152934.28;5041507;28;20910;-76
2021/04/19 05:23:42;;;;;;;17.00;15.17;;;;;;;6.13;100.00;152935.59;5040102;28;20820;-75
2021/04/19 05:26:19;;;;;;;18.43;15.97;;;;;;;6.13;99.39;152936.88;5053032;28;20453;-76
2021/04/19 05:28:55;;;;;;;21.97;16.37;;;;;;;6.10;100.00;152929.13;5050294;28;20441;-77
2021/04/19 05:31:30;;;;;;;21.80;16.77;;;;;;;6.06;100.00;152918.78;5041549;28;20953;-76
2021/04/19 05:34:05;;;;;;;17.63;15.73;;;;;;;6.01;99.73;152904.66;5038500;28;21112;-76
2021/04/19 05:36:42;;;;;;;21.70;16.63;;;;;;;6.01;100.00;152905.88;5059392;28;20444;-76
2021/04/19 05:39:18;;;;;;;19.67;16.43;;;;;;;6.02;100.00;152908.50;5062764;28;20459;-77
2021/04/19 05:41:53;;;;;;;20.50;17.47;;;;;;;6.05;100.00;152916.25;5053046;28;20437;-77
2021/04/19 05:44:30;;;;;;;23.40;16.80;;;;;;;6.11;100.00;152931.72;5053253;28;20437;-77
2021/04/19 05:47:05;;;;;;;20.90;17.40;;;;;;;6.12;100.00;152932.97;5050629;28;20456;-77
2021/04/19 05:49:41;;;;;;;23.33;17.80;;;;;;;6.11;100.00;152931.72;5048904;28;21137;-77
2021/04/19 05:52:16;;;;;;;20.23;17.30;;;;;;;6.10;100.00;152929.13;5043528;28;20456;-77
2021/04/19 05:54:52;;;;;;;23.50;18.50;;;;;;;6.09;100.00;152926.53;5052185;28;20568;-76
2021/04/19 05:57:33;;;;;;;21.93;16.97;;;;;;;6.10;100.00;152927.84;5043585;28;20445;-76
2021/04/19 06:00:16;;;;;;;21.27;17.40;;;;;;;6.10;100.00;152929.13;5050536;28;21292;-76
2021/04/19 06:02:56;;;;;;;20.67;16.47;;;;;;;6.12;100.00;152932.97;5039508;28;20938;-75
2021/04/19 06:05:35;;;;;;;22.10;17.50;;;;;;;6.10;100.00;152929.13;5049649;28;20475;-75
2021/04/19 06:08:13;;;;;;;20.27;16.70;;;;;;;6.09;100.00;152926.53;5047046;28;20494;-76
2021/04/19 06:11:18;;;;;;;22.43;18.57;;;;;;;6.07;100.00;152921.38;5053144;28;20458;-76
2021/04/19 06:14:08;;;;;;;22.73;18.30;;;;;;;6.08;100.00;152923.97;5049146;28;20489;-75
2021/04/19 06:16:44;;;;;;;27.53;18.13;;;;;;;6.12;100.00;152932.97;5052695;28;20449;-75
2021/04/19 06:19:20;;;;;;;22.40;17.63;;;;;;;6.11;100.00;152931.72;5049839;28;20453;-76
2021/04/19 06:21:56;;;;;;;21.87;17.63;;;;;;;6.14;100.00;152939.44;5038009;28;20472;-76
2021/04/19 06:24:31;;;;;;;20.50;18.13;;;;;;;6.14;100.00;152939.44;5056153;28;20532;-76
2021/04/19 06:27:07;;;;;;;22.43;16.70;;;;;;;6.12;100.00;152934.28;5036059;28;22938;-76
2021/04/19 06:29:42;;;;;;;23.20;18.60;;;;;;;6.13;100.00;152936.88;5040827;28;20498;-76
2021/04/19 06:32:21;;;;;;;23.00;17.90;;;;;;;6.12;100.00;152934.28;5058790;28;20460;-75
2021/04/19 06:34:56;;;;;;;21.23;17.53;;;;;;;6.10;100.00;152929.13;5060410;28;20556;-76
2021/04/19 06:37:32;;;;;;;24.43;18.07;;;;;;;6.11;100.00;152931.72;5066247;28;20484;-75
2021/04/19 06:40:08;;;;;;;22.70;19.50;;;;;;;6.11;100.00;152931.72;5054446;28;20450;-76
2021/04/19 06:42:44;;;;;;;23.67;16.30;;;;;;;6.06;100.00;152918.78;5040852;28;20440;-76
2021/04/19 06:45:20;;;;;;;24.63;18.70;;;;;;;6.03;100.00;152911.09;5047973;28;20771;-76
2021/04/19 06:47:57;;;;;;;21.27;18.17;;;;;;;6.05;100.00;152916.25;5055050;28;20581;-76
2021/04/19 06:50:33;;;;;;;23.40;17.47;;;;;;;6.04;100.00;152913.63;5056451;28;20435;-76
2021/04/19 06:53:08;;;;;;;24.80;18.10;;;;;;;6.05;100.00;152916.25;5057399;28;22258;-76
2021/04/19 06:55:43;;;;;;;22.10;17.53;;;;;;;6.02;100.00;152908.50;5046424;28;20486;-76
2021/04/19 06:58:19;;;;;;;22.50;18.80;;;;;;;6.00;100.00;152903.34;5036505;28;21021;-76
2021/04/19 07:00:57;;;;;;;23.80;17.03;;;;;;;5.98;100.00;152896.91;5055028;28;20962;-77
2021/04/19 07:03:32;;;;;;;28.47;19.30;;;;;;;6.00;100.00;152902.03;5054062;28;20475;-77
2021/04/19 07:06:08;;;;;;;24.03;18.40;;;;;;;5.93;100.00;152885.25;5042922;28;20937;-77
2021/04/19 07:08:47;;;;;;;23.30;17.90;;;;;;;5.91;100.00;152878.81;5042640;28;20447;-77
2021/04/19 07:11:22;;;;;;;18.43;16.27;;;;;;;5.89;100.00;152874.97;5053431;28;20447;-77
2021/04/19 07:14:00;;;;;;;20.20;17.13;;;;;;;5.84;100.00;152862.00;5049441;28;20486;-77
2021/04/19 07:16:36;;;;;;;24.37;19.37;;;;;;;5.84;100.00;152862.00;5059042;28;20826;-78
2021/04/19 07:19:11;;;;;;;20.60;17.13;;;;;;;5.86;100.00;152867.22;5027586;28;20449;-77
2021/04/19 07:21:46;;;;;;;21.67;18.03;;;;;;;5.88;100.00;152872.34;5050755;28;20447;-77
2021/04/19 07:24:22;;;;;;;24.17;18.90;;;;;;;5.85;100.00;152864.63;5037920;28;20985;-77
2021/04/19 07:26:58;;;;;;;22.83;19.00;;;;;;;5.88;100.00;152872.34;5051356;28;20451;-77
2021/04/19 07:29:34;;;;;;;23.20;17.60;;;;;;;5.98;100.00;152898.16;5053919;28;20530;-77
2021/04/19 07:32:10;;;;;;;23.67;17.93;;;;;;;5.98;100.00;152898.16;5038041;28;20498;-76
2021/04/19 07:34:57;;;;;;;23.27;18.67;;;;;;;6.02;100.00;152908.50;5057132;28;20826;-77
2021/04/19 07:37:32;;;;;;;24.90;21.03;;;;;;;6.04;100.00;152913.63;5053053;28;20451;-76
2021/04/19 07:40:08;;;;;;;23.70;19.67;;;;;;;6.10;100.00;152927.84;5054430;28;20436;-76
2021/04/19 07:42:43;;;;;;;25.07;19.37;;;;;;;6.15;100.00;152940.72;5038441;28;20460;-76
2021/04/19 07:45:20;;;;;;;24.27;19.67;;;;;;;6.20;100.00;152953.63;5068330;28;20456;-76
2021/04/19 07:47:55;;;;;;;24.13;17.83;;;;;;;6.25;100.00;152965.28;5057562;28;20537;-76
2021/04/19 07:50:30;;;;;;;25.07;20.17;;;;;;;6.26;100.00;152967.81;5055180;28;20455;-76
2021/04/19 07:53:08;;;;;;;27.93;20.23;;;;;;;6.32;100.00;152983.31;5024798;28;20452;-76
2021/04/19 07:55:44;;;;;;;23.83;18.53;;;;;;;6.33;100.00;152985.91;5057602;28;20474;-76
2021/04/19 07:58:22;;;;;;;21.53;19.10;;;;;;;6.36;100.00;152994.91;5077954;28;20442;-76
2021/04/19 08:01:03;;;;;;;25.50;18.63;;;;;;;6.42;100.00;153009.13;5043949;28;20452;-76
2021/04/19 08:03:40;;;;;;;23.87;19.77;;;;;;;6.49;100.00;153027.16;5069993;28;20828;-76
2021/04/19 08:06:19;;;;;;;24.00;18.50;;;;;;;6.49;100.00;153028.47;5081477;28;20809;-76
2021/04/19 08:09:05;;;;;;;22.50;20.10;;;;;;;6.58;100.00;153050.41;5061448;28;20448;-76
2021/04/19 08:11:43;;;;;;;22.80;18.97;;;;;;;6.61;100.00;153058.16;5058085;28;21013;-76
2021/04/19 08:14:18;;;;;;;25.10;19.10;;;;;;;6.67;100.00;153074.91;5076331;28;20571;-76
2021/04/19 08:17:08;;;;;;;23.60;19.20;;;;;;;6.71;100.00;153083.97;5059947;28;20778;-76
2021/04/19 08:19:42;;;;;;;22.90;18.87;;;;;;;6.72;100.00;153087.81;5053214;28;20468;-76
2021/04/19 08:22:19;;;;;;;23.90;19.17;;;;;;;6.75;100.00;153094.31;5069213;28;20455;-76
2021/04/19 08:25:16;;;;;;;22.13;19.40;;;;;;;6.82;100.00;153112.38;5065167;28;20443;-79
2021/04/19 08:28:01;;;;;;;24.07;18.50;;;;;;;6.84;100.00;153116.22;5076554;28;20453;-76
2021/04/19 08:30:36;;;;;;;23.83;18.83;;;;;;;6.90;100.00;153131.72;5058286;28;20434;-76
2021/04/19 08:33:13;;;;;;;24.03;19.83;;;;;;;6.93;100.00;153140.78;5057060;28;20763;-76
2021/04/19 08:35:50;;;;;;;22.47;18.73;;;;;;;6.99;100.00;153156.25;5041610;28;20847;-76
2021/04/19 08:38:25;;;;;;;22.87;18.60;;;;;;;7.02;100.00;153162.69;5057049;28;20459;-77
2021/04/19 08:41:00;;;;;;;25.03;19.00;;;;;;;7.02;100.00;153164.00;5056917;28;20440;-77
2021/04/19 08:43:36;;;;;;;22.40;18.77;;;;;;;7.05;100.00;153171.75;5057239;28;20508;-77
2021/04/19 08:46:14;;;;;;;22.03;17.90;;;;;;;7.05;100.00;153171.75;5037727;28;20995;-77
2021/04/19 08:48:50;;;;;;;23.43;18.90;;;;;;;7.02;100.00;153164.00;5057145;28;20544;-77
2021/04/19 08:51:25;;;;;;;25.53;19.97;;;;;;;7.03;100.00;153166.59;5057887;28;20924;-77
2021/04/19 08:54:02;;;;;;;21.73;18.40;;;;;;;7.05;100.00;153171.75;5041088;28;20990;-76
2021/04/19 08:56:37;;;;;;;27.90;20.43;;;;;;;7.04;100.00;153169.16;5057198;28;20450;-76
2021/04/19 08:59:13;;;;;;;24.07;19.13;;;;;;;7.14;100.00;153193.72;5040337;28;20450;-76
2021/04/19 09:01:48;;;;;;;22.27;18.90;;;;;;;7.15;100.00;153196.25;5056821;28;20448;-76
2021/04/19 09:04:25;;;;;;;22.90;18.13;;;;;;;7.08;100.00;153178.19;5068160;28;20440;-77
2021/04/19 09:07:02;;;;;;;26.73;19.17;;;;;;;7.00;100.00;153158.84;5067233;28;20444;-76
2021/04/19 09:09:40;;;;;;;27.17;20.13;;;;;;;7.04;100.00;153167.91;5053616;28;20457;-76
2021/04/19 09:12:23;;;;;;;24.43;18.57;;;;;;;7.02;100.00;153162.69;5051542;28;20465;-76
2021/04/19 09:15:27;;;;;;;23.20;18.80;;;;;;;7.11;100.00;153185.94;5056300;28;20515;-76
2021/04/19 09:18:10;;;;;;;24.13;19.10;;;;;;;7.13;100.00;153192.41;4995173;28;20871;-76
2021/04/19 09:20:48;;;;;;;25.63;20.60;;;;;;;7.11;100.00;153187.25;5060598;28;20442;-76
2021/04/19 09:23:27;;;;;;;24.37;18.37;;;;;;;7.13;100.00;153192.41;5057814;28;20457;-77
2021/04/19 09:26:03;;;;;;;22.33;18.33;;;;;;;7.14;100.00;153195.00;5045273;28;20449;-77
2021/04/19 09:28:56;;;;;;;22.37;18.30;;;;;;;7.21;100.00;153213.06;5044152;28;21244;-77
2021/04/19 09:32:00;;;;;;;22.67;17.63;;;;;;;7.10;100.00;153184.66;5064813;28;20449;-77
2021/04/19 09:34:40;;;;;;;25.60;18.80;;;;;;;7.19;100.00;153207.91;5058041;28;20473;-76
2021/04/19 09:37:18;;;;;;;25.67;19.40;;;;;;;7.19;100.00;153207.91;5036811;28;20824;-76
2021/04/19 09:39:57;;;;;;;22.10;18.20;;;;;;;7.15;100.00;153197.56;5068418;28;20437;-77
2021/04/19 09:43:05;;;;;;;24.30;18.17;;;;;;;7.22;100.00;153214.38;5054260;28;20497;-76
2021/04/19 09:46:03;;;;;;;23.40;18.30;;;;;;;7.14;100.00;153193.72;5048187;28;21232;-76
2021/04/19 09:48:41;;;;;;;27.10;18.27;;;;;;;7.14;100.00;153195.00;5040678;28;20454;-77
2021/04/19 09:51:19;;;;;;;24.13;18.80;;;;;;;7.22;100.00;153215.66;5040176;28;20446;-77
2021/04/19 09:53:59;;;;;;;22.20;17.60;;;;;;;7.26;100.00;153225.97;5054982;28;20469;-77
2021/04/19 09:56:37;;;;;;;24.37;19.43;;;;;;;7.17;100.00;153201.47;5061127;28;20449;-77
2021/04/19 09:59:16;;;;;;;21.23;18.10;;;;;;;7.18;100.00;153205.31;5034899;28;20502;-77
2021/04/19 10:01:52;;;;;;;23.93;18.87;;;;;;;7.13;100.00;153192.41;5078553;28;20438;-77
2021/04/19 10:04:30;;;;;;;28.83;21.43;;;;;;;7.07;100.00;153175.66;5078415;28;20918;-77
2021/04/19 10:07:05;;;;;;;25.73;20.00;;;;;;;7.19;100.00;153207.91;5076763;28;20529;-77
2021/04/19 10:09:43;;;;;;;25.40;20.20;;;;;;;7.12;100.00;153189.81;5041681;28;20453;-77
2021/04/19 10:12:19;;;;;;;26.47;19.77;;;;;;;7.10;100.00;153183.34;5053890;28;20563;-77
2021/04/19 10:14:55;;;;;;;26.77;19.10;;;;;;;7.16;100.00;153200.16;5052268;28;20570;-76
2021/04/19 10:17:39;;;;;;;25.83;19.40;;;;;;;7.12;100.00;153189.81;5073408;28;20840;-76
2021/04/19 10:20:18;;;;;;;25.43;20.27;;;;;;;7.24;100.00;153219.53;5053595;28;20493;-77
2021/04/19 10:23:06;;;;;;;29.10;20.83;;;;;;;7.25;100.00;153223.38;5061163;28;20456;-77
2021/04/19 10:25:46;;;;;;;29.67;21.10;;;;;;;7.35;100.00;153247.94;5055890;28;20826;-77
2021/04/19 10:28:40;;;;;;;31.77;23.17;;;;;;;7.43;100.00;153268.59;5048500;28;20956;-77
2021/04/19 10:31:19;;;;;;;27.33;20.50;;;;;;;7.41;100.00;153262.16;5069595;28;20447;-77
2021/04/19 10:33:55;;;;;;;26.87;20.80;;;;;;;7.51;100.00;153287.97;5048125;28;20486;-77
2021/04/19 10:36:31;;;;;;;26.20;20.33;;;;;;;7.53;100.00;153293.13;5060256;28;20441;-77
2021/04/19 10:39:12;;;;;;;27.73;21.40;;;;;;;7.56;100.00;153300.88;5070212;28;20901;-77
2021/04/19 10:41:49;;;;;;;28.97;22.77;;;;;;;7.66;100.00;153326.72;5048384;28;20482;-77
2021/04/19 10:44:33;;;;;;;28.30;21.97;;;;;;;7.68;100.00;153333.16;5046114;28;20448;-77
2021/04/19 10:47:09;;;;;;;27.90;21.03;;;;;;;7.79;100.00;153361.59;5047609;28;20546;-77
2021/04/19 10:49:46;;;;;;;27.43;18.80;;;;;;;7.74;100.00;153347.38;5045361;28;20427;-76
2021/04/19 10:52:21;;;;;;;28.70;22.90;;;;;;;7.82;100.00;153368.03;5052911;28;20452;-77
2021/04/19 10:54:56;;;;;;;27.80;21.93;;;;;;;7.84;100.00;153373.19;5048279;28;20480;-77
2021/04/19 10:57:32;;;;;;;28.83;21.70;;;;;;;7.91;100.00;153391.31;5060704;28;20454;-77
2021/04/19 11:00:08;;;;;;;29.50;21.77;;;;;;;7.93;100.00;153396.47;5060948;28;20439;-77
2021/04/19 11:02:43;;;;;;;30.37;22.80;;;;;;;7.99;100.00;153413.25;5049310;28;20484;-77
2021/04/19 11:05:19;;;;;;;29.00;21.40;;;;;;;8.01;100.00;153415.84;5035345;28;20449;-77
2021/04/19 11:07:54;;;;;;;29.40;21.13;;;;;;;8.06;100.00;153430.06;5056319;28;20479;-77
2021/04/19 11:10:29;;;;;;;28.90;21.80;;;;;;;8.05;100.00;153427.47;5035580;28;20442;-78
2021/04/19 11:13:07;;;;;;;27.23;21.77;;;;;;;8.07;100.00;153432.66;5049472;28;20450;-77
2021/04/19 11:15:45;;;;;;;28.63;22.20;;;;;;;8.13;100.00;153446.88;5049042;28;20466;-77
2021/04/19 11:18:22;;;;;;;28.53;22.10;;;;;;;8.13;100.00;153448.13;5054177;28;20453;-78
2021/04/19 11:20:57;;;;;;;26.33;22.17;;;;;;;8.12;100.00;153445.59;5047542;28;20458;-78
2021/04/19 11:23:34;;;;;;;28.33;22.40;;;;;;;8.05;100.00;153427.47;5058955;28;20455;-78
2021/04/19 11:26:10;;;;;;;25.90;21.20;;;;;;;8.13;100.00;153448.13;5070229;28;20434;-78
2021/04/19 11:28:46;;;;;;;29.07;21.60;;;;;;;8.14;100.00;153449.44;5053504;28;20490;-78
2021/04/19 11:31:21;;;;;;;25.27;19.40;;;;;;;8.21;100.00;153468.81;5074054;28;20453;-78
2021/04/19 11:34:06;;;;;;;26.90;19.50;;;;;;;8.24;100.00;153476.59;5048681;28;20446;-78
2021/04/19 11:36:42;;;;;;;24.50;18.10;;;;;;;8.25;100.00;153479.19;5042891;28;20439;-78
2021/04/19 11:39:20;;;;;;;23.40;19.10;;;;;;;8.25;100.00;153477.88;5079761;28;20434;-78
2021/04/19 11:41:55;;;;;;;24.90;17.90;;;;;;;8.26;100.00;153481.75;5067515;28;20451;-78
2021/04/19 11:44:49;;;;;;;24.67;18.90;;;;;;;8.31;100.00;153493.47;5039133;28;20458;-78
2021/04/19 11:47:24;;;;;;;28.00;20.30;;;;;;;8.25;100.00;153477.88;5035143;28;20462;-87
2021/04/19 11:50:00;;;;;;;21.13;17.40;;;;;;;8.33;100.00;153498.63;5051895;28;20440;-87
2021/04/19 11:52:44;;;;;;;23.60;18.10;;;;;;;8.29;100.00;153489.56;5045468;28;20438;-87
2021/04/19 11:55:20;;;;;;;22.33;18.00;;;;;;;8.34;100.00;153502.47;5050508;28;20802;-87
2021/04/19 11:57:55;;;;;;;23.50;18.57;;;;;;;8.40;100.00;153518.00;5052961;28;20446;-87
2021/04/19 12:00:31;;;;;;;23.07;18.57;;;;;;;8.42;100.00;153523.16;5050704;28;20439;-87
2021/04/19 12:03:06;;;;;;;24.63;18.70;;;;;;;8.44;100.00;153528.34;5054933;28;20442;-87
2021/04/19 12:05:42;;;;;;;23.60;17.97;;;;;;;8.46;100.00;153532.22;5054584;28;20442;-86